createdAt,value
2022-07-30T00:00:59.181Z,79.91
2022-07-30T00:03:31.663Z,80.39
2022-07-30T00:06:05.074Z,80.45
2022-07-30T00:08:37.436Z,81.06
2022-07-30T00:11:09.621Z,81.09
2022-07-30T00:13:41.874Z,81.48
2022-07-30T00:16:14.726Z,81.27
2022-07-30T00:18:47.130Z,81.28
2022-07-30T00:21:20.290Z,81.38
2022-07-30T00:24:09.741Z,81.66
2022-07-30T00:26:43.234Z,82.27
2022-07-30T00:29:15.790Z,81.92
2022-07-30T00:31:47.703Z,82.11
2022-07-30T00:34:20.304Z,82.77
2022-07-30T00:36:52.684Z,82.63
2022-07-30T00:39:25.135Z,82.64
2022-07-30T00:41:59.302Z,82.70
2022-07-30T00:44:31.741Z,82.61
2022-07-30T00:47:04.040Z,82.71
2022-07-30T00:49:40.266Z,82.78
2022-07-30T00:52:15.510Z,82.64
2022-07-30T00:54:47.920Z,82.57
2022-07-30T00:57:19.829Z,82.52
2022-07-30T00:59:54.641Z,82.34
2022-07-30T01:02:26.975Z,82.34
2022-07-30T01:05:00.379Z,82.36
2022-07-30T01:07:34.610Z,82.47
2022-07-30T01:10:09.065Z,82.36
2022-07-30T01:12:42.265Z,82.31
2022-07-30T01:15:14.858Z,82.37
2022-07-30T01:17:49.850Z,82.20
2022-07-30T01:20:29.179Z,82.18
2022-07-30T01:23:06.710Z,82.22
2022-07-30T01:25:52.827Z,82.21
2022-07-30T01:28:28.025Z,82.19
2022-07-30T01:31:00.934Z,82.21
2022-07-30T01:33:34.596Z,82.13
2022-07-30T01:36:08.691Z,82.16
2022-07-30T01:38:43.161Z,82.12
2022-07-30T01:41:16.475Z,82.12
2022-07-30T01:43:49.314Z,82.19
2022-07-30T01:46:22.165Z,82.11
2022-07-30T01:48:54.806Z,82.13
2022-07-30T01:51:27.204Z,82.09
2022-07-30T01:54:11.369Z,82.43
2022-07-30T01:56:44.060Z,82.59
2022-07-30T01:59:16.800Z,82.61
2022-07-30T02:01:48.780Z,82.52
2022-07-30T02:04:20.911Z,82.64
2022-07-30T02:07:01.329Z,82.94
2022-07-30T02:09:38.398Z,83.07
2022-07-30T02:12:31.853Z,83.28
2022-07-30T02:15:12.046Z,83.44
2022-07-30T02:17:48.698Z,83.75
2022-07-30T02:20:28.362Z,83.90
2022-07-30T02:23:04.468Z,83.98
2022-07-30T02:25:38.028Z,84.03
2022-07-30T02:28:13.247Z,84.19
2022-07-30T02:30:49.052Z,84.34
2022-07-30T02:33:22.916Z,84.61
2022-07-30T02:35:55.593Z,84.85
2022-07-30T02:38:29.163Z,85.28
2022-07-30T02:41:02.816Z,85.53
2022-07-30T02:43:36.552Z,85.32
2022-07-30T02:46:10.620Z,85.64
2022-07-30T02:48:43.184Z,85.47
2022-07-30T02:51:18.876Z,85.41
2022-07-30T02:53:53.488Z,85.49
2022-07-30T02:56:25.871Z,85.81
2022-07-30T02:58:59.078Z,86.15
2022-07-30T03:01:31.897Z,86.21
2022-07-30T03:04:04.721Z,86.19
2022-07-30T03:06:37.834Z,86.35
2022-07-30T03:09:11.063Z,86.43
2022-07-30T03:11:43.488Z,86.27
2022-07-30T03:14:16.090Z,86.09
2022-07-30T03:16:50.601Z,86.21
2022-07-30T03:19:24.221Z,86.08
2022-07-30T03:21:59.213Z,85.95
2022-07-30T03:24:31.813Z,85.95
2022-07-30T03:27:04.518Z,85.97
2022-07-30T03:29:38.583Z,86.03
2022-07-30T03:32:13.616Z,86.06
2022-07-30T03:34:46.561Z,86.12
2022-07-30T03:37:21.626Z,86.18
2022-07-30T03:39:58.712Z,86.03
2022-07-30T03:42:30.892Z,85.97
2022-07-30T03:45:04.722Z,86.14
2022-07-30T03:47:38.322Z,86.13
2022-07-30T03:50:13.100Z,86.23
2022-07-30T03:52:45.210Z,86.26
2022-07-30T03:55:17.831Z,86.29
2022-07-30T03:57:50.401Z,86.06
2022-07-30T04:00:22.892Z,86.13
2022-07-30T04:02:54.996Z,86.28
2022-07-30T04:05:27.288Z,86.48
2022-07-30T04:08:09.894Z,86.60
2022-07-30T04:10:44.729Z,86.37
2022-07-30T04:13:16.878Z,86.30
2022-07-30T04:16:35.006Z,86.39
2022-07-30T04:18:56.777Z,86.30
2022-07-30T04:21:30.158Z,86.38
2022-07-30T04:24:05.241Z,86.21
2022-07-30T04:26:40.163Z,86.02
2022-07-30T04:29:18.290Z,85.93
2022-07-30T04:31:52.594Z,85.97
2022-07-30T04:34:24.831Z,85.98
2022-07-30T04:36:57.008Z,86.01
2022-07-30T04:39:29.362Z,85.85
2022-07-30T04:42:02.682Z,85.75
2022-07-30T04:44:35.128Z,85.63
2022-07-30T04:47:08.062Z,85.64
2022-07-30T04:49:40.702Z,85.42
2022-07-30T04:52:13.766Z,85.17
2022-07-30T04:54:50.641Z,85.21
2022-07-30T04:57:23.084Z,84.85
2022-07-30T04:59:55.659Z,84.42
2022-07-30T05:02:30.869Z,84.11
2022-07-30T05:05:03.678Z,83.99
2022-07-30T05:07:38.043Z,83.46
2022-07-30T05:10:14.398Z,83.27
2022-07-30T05:12:47.029Z,83.24
2022-07-30T05:15:20.126Z,83.04
2022-07-30T05:17:52.773Z,82.78
2022-07-30T05:20:25.337Z,82.59
2022-07-30T05:22:57.520Z,82.27
2022-07-30T05:25:31.126Z,82.01
2022-07-30T05:28:03.183Z,81.63
2022-07-30T05:30:35.541Z,81.34
2022-07-30T05:33:15.500Z,80.94
2022-07-30T05:35:49.710Z,81.16
2022-07-30T05:38:21.718Z,81.07
2022-07-30T05:40:57.391Z,80.99
2022-07-30T05:43:29.717Z,80.68
2022-07-30T05:46:01.928Z,80.49
2022-07-30T05:48:35.770Z,80.19
2022-07-30T05:51:08.510Z,79.73
2022-07-30T05:53:42.540Z,79.32
2022-07-30T05:56:14.470Z,78.99
2022-07-30T05:58:46.720Z,78.91
2022-07-30T06:01:18.747Z,78.81
2022-07-30T06:03:53.250Z,78.74
2022-07-30T06:06:25.378Z,78.78
2022-07-30T06:08:57.449Z,78.50
2022-07-30T06:11:29.695Z,78.44
2022-07-30T06:14:03.113Z,78.53
2022-07-30T06:16:35.356Z,78.42
2022-07-30T06:19:08.541Z,78.58
2022-07-30T06:22:01.789Z,78.28
2022-07-30T06:24:38.605Z,78.22
2022-07-30T06:27:11.080Z,78.18
2022-07-30T06:29:43.917Z,78.29
2022-07-30T06:32:16.575Z,78.38
2022-07-30T06:34:53.334Z,78.32
2022-07-30T06:37:58.802Z,77.99
2022-07-30T06:40:21.725Z,77.51
2022-07-30T06:42:53.865Z,77.58
2022-07-30T06:45:27.396Z,77.26
2022-07-30T06:48:01.538Z,77.18
2022-07-30T06:50:33.481Z,76.73
2022-07-30T06:53:07.350Z,76.08
2022-07-30T06:55:39.251Z,75.67
2022-07-30T06:58:11.856Z,75.20
2022-07-30T07:00:45.079Z,74.80
2022-07-30T07:03:17.805Z,74.43
2022-07-30T07:05:49.883Z,73.69
2022-07-30T07:08:22.068Z,73.80
2022-07-30T07:10:59.817Z,73.70
2022-07-30T07:13:31.917Z,73.30
2022-07-30T07:16:04.877Z,73.00
2022-07-30T07:18:37.016Z,72.83
2022-07-30T07:21:09.859Z,72.83
2022-07-30T07:23:42.540Z,71.92
2022-07-30T07:26:16.054Z,72.38
2022-07-30T07:28:50.803Z,71.84
2022-07-30T07:32:05.617Z,71.62
2022-07-30T07:34:17.135Z,71.30
2022-07-30T07:36:51.614Z,71.04
2022-07-30T07:39:24.230Z,71.18
2022-07-30T07:41:56.625Z,70.96
2022-07-30T07:44:28.962Z,70.73
2022-07-30T07:47:01.367Z,70.44
2022-07-30T07:49:33.605Z,69.90
2022-07-30T07:52:07.894Z,69.33
2022-07-30T07:54:40.403Z,68.55
2022-07-30T07:57:13.413Z,68.21
2022-07-30T07:59:47.358Z,67.99
2022-07-30T08:02:22.413Z,67.59
2022-07-30T08:04:54.706Z,67.35
2022-07-30T08:07:27.248Z,67.15
2022-07-30T08:09:59.515Z,67.01
2022-07-30T08:12:31.917Z,66.43
2022-07-30T08:15:04.308Z,66.33
2022-07-30T08:17:36.764Z,65.57
2022-07-30T08:20:10.828Z,64.59
2022-07-30T08:22:43.100Z,63.32
2022-07-30T08:25:22.139Z,63.75
2022-07-30T08:27:57.055Z,63.31
2022-07-30T08:30:30.498Z,63.40
2022-07-30T08:33:03.545Z,63.21
2022-07-30T08:35:37.314Z,63.09
2022-07-30T08:38:20.924Z,62.65
2022-07-30T08:40:54.157Z,62.38
2022-07-30T08:43:28.087Z,61.92
2022-07-30T08:46:02.516Z,60.83
2022-07-30T08:48:35.808Z,60.51
2022-07-30T08:51:08.331Z,58.60
2022-07-30T08:53:42.903Z,58.34
2022-07-30T08:56:15.482Z,58.67
2022-07-30T08:58:48.650Z,58.42
2022-07-30T09:01:21.049Z,58.17
2022-07-30T09:03:54.338Z,58.38
2022-07-30T09:06:27.328Z,57.71
2022-07-30T09:09:00.542Z,57.44
2022-07-30T09:11:33.142Z,57.33
2022-07-30T09:14:12.462Z,57.41
2022-07-30T09:16:44.788Z,56.94
2022-07-30T09:19:19.061Z,57.15
2022-07-30T09:22:01.258Z,56.99
2022-07-30T09:24:44.821Z,56.38
2022-07-30T09:27:17.109Z,56.56
2022-07-30T09:29:58.448Z,56.83
2022-07-30T09:32:50.284Z,56.64
2022-07-30T09:35:23.369Z,56.32
2022-07-30T09:38:06.609Z,55.97
2022-07-30T09:40:38.931Z,56.34
2022-07-30T09:43:15.709Z,56.00
2022-07-30T09:46:00.747Z,56.20
2022-07-30T09:48:33.357Z,56.24
2022-07-30T09:51:05.367Z,55.69
2022-07-30T09:54:00.351Z,55.43
2022-07-30T09:56:33.948Z,55.15
2022-07-30T09:59:07.681Z,55.22
2022-07-30T10:02:01.046Z,54.91
2022-07-30T10:04:36.481Z,54.31
2022-07-30T10:07:24.843Z,53.16
2022-07-30T10:09:58.823Z,52.46
2022-07-30T10:12:31.830Z,52.73
2022-07-30T10:15:07.161Z,51.73
2022-07-30T10:17:40.407Z,50.28
2022-07-30T10:20:14.874Z,49.96
2022-07-30T10:22:48.100Z,49.16
2022-07-30T10:25:27.761Z,48.98
2022-07-30T10:28:04.482Z,48.66
2022-07-30T10:30:39.726Z,48.33
2022-07-30T10:33:34.891Z,47.83
2022-07-30T10:36:09.073Z,47.53
2022-07-30T10:38:43.580Z,47.25
2022-07-30T10:41:44.314Z,47.38
2022-07-30T10:44:40.562Z,47.27
2022-07-30T10:47:14.835Z,47.44
2022-07-30T10:50:12.409Z,47.41
2022-07-30T10:52:51.776Z,47.35
2022-07-30T10:55:37.535Z,47.19
2022-07-30T10:58:22.841Z,47.39
2022-07-30T11:01:04.402Z,47.84
2022-07-30T11:03:41.399Z,47.86
2022-07-30T11:06:30.522Z,48.05
2022-07-30T11:09:04.252Z,47.89
2022-07-30T11:12:05.475Z,47.94
2022-07-30T11:18:13.850Z,48.12
2022-07-30T11:20:48.836Z,48.70
2022-07-30T11:23:41.839Z,48.87
2022-07-30T11:26:38.999Z,49.47
2022-07-30T11:29:50.832Z,49.84
2022-07-30T11:32:32.553Z,50.15
2022-07-30T11:35:34.459Z,50.85
2022-07-30T11:38:18.938Z,51.85
2022-07-30T11:41:14.315Z,53.75
2022-07-30T11:43:46.500Z,55.10
2022-07-30T11:46:28.879Z,55.85
2022-07-30T11:49:05.227Z,57.61
2022-07-30T11:51:44.953Z,59.66
2022-07-30T11:54:17.854Z,60.82
2022-07-30T11:56:54.584Z,62.22
2022-07-30T11:59:26.880Z,63.55
2022-07-30T12:02:03.244Z,65.75
2022-07-30T12:04:35.525Z,66.73
2022-07-30T12:07:07.717Z,67.79
2022-07-30T12:09:39.808Z,69.06
2022-07-30T12:12:25.460Z,70.26
2022-07-30T12:15:01.750Z,73.66
2022-07-30T12:17:45.982Z,74.74
2022-07-30T12:20:22.495Z,75.29
2022-07-30T12:22:54.760Z,76.49
2022-07-30T12:25:27.431Z,77.86
2022-07-30T12:28:00.173Z,78.70
2022-07-30T12:30:32.270Z,79.44
2022-07-30T12:33:04.772Z,80.52
2022-07-30T12:35:50.475Z,81.60
2022-07-30T12:38:24.263Z,82.42
2022-07-30T12:41:03.121Z,82.89
2022-07-30T12:43:49.676Z,83.33
2022-07-30T12:46:23.446Z,83.54
2022-07-30T12:48:58.226Z,84.04
2022-07-30T12:51:37.674Z,84.03
2022-07-30T12:54:19.800Z,84.66
2022-07-30T12:57:03.778Z,84.76
2022-07-30T12:59:39.552Z,84.98
2022-07-30T13:02:12.632Z,85.75
2022-07-30T13:05:10.113Z,85.68
2022-07-30T13:08:00.215Z,86.51
2022-07-30T13:10:32.616Z,86.23
2022-07-30T13:13:04.948Z,86.15
2022-07-30T13:15:39.571Z,86.31
2022-07-30T13:18:26.589Z,86.91
2022-07-30T13:20:58.628Z,86.64
2022-07-30T13:23:31.302Z,86.98
2022-07-30T13:26:05.696Z,87.56
2022-07-30T13:28:38.445Z,87.64
2022-07-30T13:31:10.651Z,87.65
2022-07-30T13:33:43.047Z,87.77
2022-07-30T13:36:15.416Z,88.01
2022-07-30T13:38:52.176Z,88.10
2022-07-30T13:41:24.807Z,88.18
2022-07-30T13:43:56.814Z,88.59
2022-07-30T13:46:28.824Z,88.70
2022-07-30T13:49:01.029Z,88.70
2022-07-30T13:51:35.633Z,89.27
2022-07-30T13:54:10.750Z,88.91
2022-07-30T13:56:46.613Z,88.73
2022-07-30T13:59:21.932Z,89.28
2022-07-30T14:01:54.648Z,89.85
2022-07-30T14:04:26.801Z,90.02
2022-07-30T14:06:59.309Z,90.16
2022-07-30T14:09:31.960Z,89.95
2022-07-30T14:12:03.791Z,89.69
2022-07-30T14:14:36.266Z,89.57
2022-07-30T14:17:10.154Z,89.46
2022-07-30T14:19:42.352Z,89.62
2022-07-30T14:22:14.304Z,89.39
2022-07-30T14:24:46.887Z,89.39
2022-07-30T14:27:20.712Z,89.65
2022-07-30T14:29:52.993Z,88.69
2022-07-30T14:32:26.307Z,88.38
2022-07-30T14:35:00.106Z,88.63
2022-07-30T14:37:33.523Z,88.11
2022-07-30T14:40:08.674Z,87.70
2022-07-30T14:42:41.896Z,87.75
2022-07-30T14:45:15.719Z,87.47
2022-07-30T14:47:47.972Z,87.37
2022-07-30T14:50:20.823Z,86.80
2022-07-30T14:52:53.065Z,87.11
2022-07-30T14:55:25.679Z,87.13
2022-07-30T14:57:57.848Z,87.39
2022-07-30T15:00:35.660Z,87.40
2022-07-30T15:03:22.991Z,87.22
2022-07-30T15:05:59.234Z,87.74
2022-07-30T15:08:32.167Z,88.03
2022-07-30T15:11:05.957Z,87.89
2022-07-30T15:13:50.096Z,88.11
2022-07-30T15:16:23.919Z,88.40
2022-07-30T15:18:56.897Z,88.65
2022-07-30T15:21:31.135Z,88.78
2022-07-30T15:24:06.408Z,88.63
2022-07-30T15:26:39.858Z,88.83
2022-07-30T15:29:13.525Z,88.73
2022-07-30T15:31:46.057Z,88.94
2022-07-30T15:34:19.323Z,88.85
2022-07-30T15:36:51.518Z,89.18
2022-07-30T15:39:23.475Z,89.38
2022-07-30T15:41:55.619Z,89.61
2022-07-30T15:44:27.953Z,89.60
2022-07-30T15:47:02.529Z,89.26
2022-07-30T15:49:34.726Z,89.27
2022-07-30T15:52:09.762Z,89.98
2022-07-30T15:54:42.219Z,89.86
2022-07-30T15:57:14.875Z,89.94
2022-07-30T15:59:48.069Z,90.40
2022-07-30T16:02:21.255Z,90.57
2022-07-30T16:04:53.268Z,90.39
2022-07-30T16:07:25.507Z,90.83
2022-07-30T16:09:58.316Z,90.98
2022-07-30T16:12:30.557Z,91.57
2022-07-30T16:15:03.572Z,92.34
2022-07-30T16:17:37.200Z,92.75
2022-07-30T16:20:11.854Z,93.02
2022-07-30T16:22:44.647Z,93.71
2022-07-30T16:25:17.062Z,94.03
2022-07-30T16:27:49.235Z,94.10
2022-07-30T16:30:23.470Z,94.11
2022-07-30T16:33:00.954Z,94.40
2022-07-30T16:35:34.804Z,94.79
2022-07-30T16:38:23.285Z,94.80
2022-07-30T16:40:57.594Z,94.75
2022-07-30T16:43:32.005Z,94.93
2022-07-30T16:46:04.881Z,95.19
2022-07-30T16:48:37.633Z,95.95
2022-07-30T16:51:10.433Z,96.38
2022-07-30T16:53:44.582Z,97.34
2022-07-30T16:56:16.532Z,97.29
2022-07-30T16:58:49.302Z,98.30
2022-07-30T17:01:21.620Z,99.33
2022-07-30T17:03:53.937Z,99.93
2022-07-30T17:06:26.324Z,100.00
2022-07-30T17:08:58.161Z,100.00
2022-07-30T17:11:46.740Z,100.00
2022-07-30T17:14:22.565Z,100.00
2022-07-30T17:16:57.147Z,100.00
2022-07-30T17:19:29.586Z,100.00
2022-07-30T17:22:03.393Z,100.00
2022-07-30T17:24:38.305Z,100.00
2022-07-30T17:27:11.099Z,100.00
2022-07-30T17:29:50.326Z,100.00
2022-07-30T17:32:23.368Z,100.00
2022-07-30T17:34:56.482Z,100.00
2022-07-30T17:37:28.580Z,100.00
2022-07-30T17:40:29.547Z,100.00
2022-07-30T17:42:53.664Z,100.00
2022-07-30T17:45:25.745Z,100.00
2022-07-30T17:47:58.047Z,100.00
2022-07-30T17:50:30.719Z,100.00
2022-07-30T17:53:03.552Z,100.00
2022-07-30T17:55:36.695Z,100.00
2022-07-30T17:58:09.395Z,100.00
2022-07-30T18:00:41.401Z,100.00
2022-07-30T18:03:13.798Z,100.00
2022-07-30T18:05:46.267Z,100.00
2022-07-30T18:08:18.430Z,100.00
2022-07-30T18:10:53.752Z,100.00
2022-07-30T18:13:27.423Z,100.00
2022-07-30T18:16:00.915Z,100.00
2022-07-30T18:18:34.512Z,100.00
2022-07-30T18:21:07.179Z,100.00
2022-07-30T18:23:40.647Z,100.00
2022-07-30T18:26:13.125Z,100.00
2022-07-30T18:28:47.513Z,100.00
2022-07-30T18:31:20.163Z,100.00
2022-07-30T18:33:55.565Z,100.00
2022-07-30T18:36:29.953Z,100.00
2022-07-30T18:39:02.583Z,100.00
2022-07-30T18:41:35.276Z,100.00
2022-07-30T18:44:08.016Z,100.00
2022-07-30T18:46:40.208Z,100.00
2022-07-30T18:49:35.628Z,100.00
2022-07-30T18:52:10.080Z,100.00
2022-07-30T18:54:42.827Z,100.00
2022-07-30T18:57:18.698Z,100.00
2022-07-30T18:59:52.194Z,100.00
2022-07-30T19:02:26.316Z,100.00
2022-07-30T19:05:01.642Z,100.00
2022-07-30T19:07:56.933Z,100.00
2022-07-30T19:10:27.236Z,100.00
2022-07-30T19:12:59.916Z,100.00
2022-07-30T19:15:31.950Z,100.00
2022-07-30T19:18:05.291Z,100.00
2022-07-30T19:20:37.271Z,100.00
2022-07-30T19:23:11.052Z,100.00
2022-07-30T19:25:43.157Z,100.00
2022-07-30T19:28:17.905Z,100.00
2022-07-30T19:30:50.524Z,100.00
2022-07-30T19:33:24.385Z,100.00
2022-07-30T19:35:57.647Z,100.00
2022-07-30T19:38:34.030Z,100.00
2022-07-30T19:41:08.025Z,100.00
2022-07-30T19:43:40.746Z,100.00
2022-07-30T19:46:13.644Z,100.00
2022-07-30T19:48:48.196Z,100.00
2022-07-30T19:51:25.125Z,100.00
2022-07-30T19:54:00.924Z,100.00
2022-07-30T19:56:37.886Z,100.00
2022-07-30T19:59:15.195Z,100.00
2022-07-30T20:01:51.864Z,100.00
2022-07-30T20:04:24.946Z,100.00
2022-07-30T20:06:57.614Z,100.00
2022-07-30T20:09:31.536Z,100.00
2022-07-30T20:12:05.691Z,100.00
2022-07-30T20:14:41.777Z,100.00
2022-07-30T20:17:16.043Z,100.00
2022-07-30T20:19:50.048Z,100.00
2022-07-30T20:22:24.255Z,100.00
2022-07-30T20:24:57.931Z,100.00
2022-07-30T20:27:36.030Z,100.00
2022-07-30T20:30:12.133Z,100.00
2022-07-30T20:32:46.988Z,100.00
2022-07-30T20:35:21.974Z,100.00
2022-07-30T20:37:56.343Z,100.00
2022-07-30T20:40:30.671Z,100.00
2022-07-30T20:43:05.834Z,100.00
2022-07-30T20:45:41.315Z,100.00
2022-07-30T20:48:17.473Z,100.00
2022-07-30T20:50:58.485Z,100.00
2022-07-30T20:53:36.784Z,100.00
2022-07-30T20:56:09.883Z,100.00
2022-07-30T20:58:45.956Z,100.00
2022-07-30T21:01:19.932Z,100.00
2022-07-30T21:03:53.406Z,100.00
2022-07-30T21:06:30.417Z,100.00
2022-07-30T21:09:04.646Z,100.00
2022-07-30T21:11:36.843Z,100.00
2022-07-30T21:14:17.746Z,100.00
2022-07-30T21:16:55.863Z,100.00
2022-07-30T21:19:29.041Z,100.00
2022-07-30T21:22:03.171Z,100.00
2022-07-30T21:24:36.763Z,100.00
2022-07-30T21:27:09.138Z,100.00
2022-07-30T21:29:45.706Z,100.00
2022-07-30T21:32:19.962Z,100.00
2022-07-30T21:35:01.279Z,100.00
2022-07-30T21:37:43.031Z,100.00
2022-07-30T21:40:16.728Z,100.00
2022-07-30T21:42:48.957Z,100.00
2022-07-30T21:45:22.128Z,100.00
2022-07-30T21:47:59.264Z,100.00
2022-07-30T21:50:32.354Z,100.00
2022-07-30T21:53:05.260Z,100.00
2022-07-30T21:55:52.415Z,100.00
2022-07-30T21:58:26.577Z,100.00
2022-07-30T22:04:08.069Z,100.00
2022-07-30T22:06:42.501Z,100.00
2022-07-30T22:09:19.345Z,100.00
2022-07-30T22:12:09.944Z,100.00
2022-07-30T22:14:48.700Z,100.00
2022-07-30T22:17:23.555Z,100.00
2022-07-30T22:20:12.556Z,100.00
2022-07-30T22:22:45.707Z,100.00
2022-07-30T22:25:17.876Z,100.00
2022-07-30T22:27:56.774Z,100.00
2022-07-30T22:30:43.935Z,100.00
2022-07-30T22:33:19.784Z,100.00
2022-07-30T22:35:52.247Z,100.00
2022-07-30T22:38:24.968Z,100.00
2022-07-30T22:40:57.455Z,100.00
2022-07-30T22:43:35.614Z,100.00
2022-07-30T22:46:14.872Z,100.00
2022-07-30T22:49:03.442Z,100.00
2022-07-30T22:52:00.865Z,100.00
2022-07-30T22:54:28.750Z,100.00
2022-07-30T22:57:04.070Z,100.00
2022-07-30T22:59:58.667Z,100.00
2022-07-30T23:02:31.677Z,100.00
2022-07-30T23:05:04.794Z,100.00
2022-07-30T23:07:39.790Z,100.00
2022-07-30T23:10:17.965Z,100.00
2022-07-30T23:12:33.132Z,100.00
2022-07-30T23:12:52.344Z,100.00
2022-07-30T23:15:24.984Z,100.00
2022-07-30T23:17:57.437Z,100.00
2022-07-30T23:20:32.651Z,100.00
2022-07-30T23:23:05.142Z,100.00
2022-07-30T23:25:38.923Z,100.00
2022-07-30T23:28:12.197Z,100.00
2022-07-30T23:30:44.610Z,100.00
2022-07-30T23:33:17.635Z,100.00
2022-07-30T23:35:51.547Z,100.00
2022-07-30T23:38:25.400Z,100.00
2022-07-30T23:41:03.057Z,100.00
2022-07-30T23:43:36.605Z,100.00
2022-07-30T23:46:10.908Z,100.00
2022-07-30T23:48:46.110Z,100.00
2022-07-30T23:51:18.208Z,100.00
2022-07-30T23:53:50.562Z,100.00
2022-07-30T23:56:25.331Z,100.00
2022-07-30T23:58:57.279Z,100.00
